• Join FlightAware (Why Join?)
  • Login
  • US Flag 
05:26AM EDT


 

Airport Tracker/Info


-or-


 

Live Flight TrackerFlight Track Log ✈ N682RW ✈ 08-Jul-2013 ✈ KBKL - KDTW

Flight Track Log - Related Links

Times and Time Zones

All times are in EDT time to prevent confusion due to time zone crossing. See the N682RW flight status page for this flight to view local times or setup timezone preferences in your user account.

Time Position Orientation Groundspeed Altitude Reporting Facility
EDT Latitude Longitude Course Direction KTS MPH feet Rate Location/Type
12:37AM 41.5494 -81.7789 310° West 274 315 2,000  Level Cleveland Center
12:38AM 41.6067 -81.8689 310° West 240 276 4,800 2,640 Climbing Cleveland Center
12:40AM 41.6194 -82.0247 276° West 289 333 9,700 2,640 Climbing Cleveland Center
12:41AM 41.6367 -82.1361 282° West 294 338 11,700 1,140 Climbing Cleveland Center
12:42AM 41.6622 -82.2508 287° West 323 372 12,000 120 Climbing Cleveland Center
12:43AM 41.7131 -82.3439 306° West 341 392 12,000  Level Cleveland Center
12:44AM 41.7756 -82.4625 305° West 336 387 12,000  Level Cleveland Center
12:45AM 41.8258 -82.5728 301° West 340 391 12,000  Level Cleveland Center
12:46AM 41.8761 -82.6747 304° West 333 383 12,000 -60 Level Cleveland Center
12:47AM 41.9225 -82.7600 306° West 337 388 11,900 -720 Descending Cleveland Center
12:48AM 42.0025 -82.8297 327° Northwest 285 328 10,600 -1,380 Descending Cleveland Center
12:49AM 42.0558 -82.8764 327° Northwest 286 329 9,200 -1,500 Descending Cleveland Center
12:50AM 42.1192 -82.9347 326° Northwest 279 321 7,700 -1,560 Descending Cleveland Center
12:51AM 42.1806 -82.9931 325° Northwest 279 321 6,100 -1,500 Descending Cleveland Center
12:52AM 42.2400 -83.0486 325° Northwest 274 315 4,700 -1,200 Descending Cleveland Center
12:53AM 42.3033 -83.1042 327° Northwest 198 228 3,700 -840 Descending Cleveland Center
12:54AM 42.3483 -83.1456 326° Northwest 181 208 3,000 -360 Descending Cleveland Center
12:55AM 42.3633 -83.2106 287° West 176 203 3,000  Level Cleveland Center
12:56AM 42.3311 -83.2544 225° Southwest 141 162 3,000 -300 Level Cleveland Center
12:57AM 42.2972 -83.2753 204° Southwest 134 154 2,400 -660 Descending Cleveland Center
12:58AM 42.2675 -83.3022 214° Southwest 124 143 1,700 -660 Descending Cleveland Center
12:59AM 42.2358 -83.3233 206° Southwest 121 139 1,100 -600 Descending Cleveland Center